Futenma Marine Corps Air Facility, Japan

10:59 PM JST on July 23, 2014 (GMT +0900)
Futenma Marine Corps Air Station (ROTM) Elev 246 ft | 26.27 °N, 127.75 °E | Change Station

Current weather conditions updated 1 minute ago

Mostly Cloudy
Mostly Cloudy
82 °F
Feels Like 91 °F
N
14
Wind Variable Wind from SSE

Tomorrow is forecast to be Cooler than today.

Today
High -- | Low -- °F
--% Chance of Precip.
Yesterday
High -- | Low -- °F
Precip. -- in
5:49 AM 7:21 PM
Waning Crescent, 10% visible
Pressure 29.80 in
Visibility 6.2 miles
Clouds Scattered Clouds 2000 ft
Mostly Cloudy 18000 ft
Heat Index 91 °F
Dew Point 77 °F
Humidity 84%
Rainfall 0.00 in
Snow Depth Not available.
UV 0 out of 12
Pollen Not available.
Air Quality Not available.
Flu Activity Not available.
METAR ROTM 231358Z 16012KT 9999 SCT020 BKN180 28/25 A2980 RMK SLPNO XWND ADV END T02800251

More Conditions Fewer Conditions

Pressure 29.80 in
Visibility 6.2 miles
Clouds Scattered Clouds 2000 ft
Mostly Cloudy 18000 ft
Heat Index 91 °F
Dew Point 77 °F
Humidity 84%
Rainfall 0.00 in
Snow Depth Not available.
UV 0 out of 12
Pollen Not available.
Air Quality Not available.
Flu Activity Not available.
METAR ROTM 231358Z 16012KT 9999 SCT020 BKN180 28/25 A2980 RMK SLPNO XWND ADV END T02800251

More Conditions Fewer Conditions

10-Day Weather Forecast

Almanac

Astronomy

Jul. 23, 2014 Rise Set
Actual Time 5:49 AM JST 7:21 PM JST
Civil Twilight 5:24 AM JST 7:46 PM JST
Nautical Twilight 4:54 AM JST 8:16 PM JST
Astronomical Twilight 4:22 AM JST 8:48 PM JST
Moon 2:37 AM JST 4:21 PM JST
Length of Visible Light 14h 21m
Length of Day
13h 31m
Tomorrow will be 0m 57s shorter.
Waning Crescent, 10% of the Moon is Illuminated
Today
Waning Crescent
Jul 26
New
Aug 3
First Quarter
Aug 10
Full
Aug 17
Last Quarter

Yesterday's Extremes

Country Highs Country Lows

Community

WunderPhotos

Upload Photos

1,736,594 photos uploaded!

Nearby

Snow Depth

Not available.

Earthquake Activity

City Distance Mag. Time & Date
No recent earthquake activity has been reported nearby.
Minimum magnitude displayed is 2.5.

Coastal Water Temperatures

Place Temperature
No Stations Reporting

Nearby Weather Stations

Station Location Temp. Heat Index Dew Point Humidity Wind Precip. Elev Updated Type
Hiyagon, Okinawa 86.9 °F 103 °F 80 °F 81% ENE  at  0.0 mph 0.00 in / hr 23 ft 10:59 PM JST Rapid Fire
Camp Hansen Range Control Okinawa Japan, Kin 83.3 °F 94 °F 79 °F 86% SE  at  12.0 mph 0.00 in / hr 210 ft 10:58 PM JST Rapid Fire

Show More Stations Show Fewer Stations